createdAt,value
2023-04-22T00:00:35.693Z,9.89
2023-04-22T00:03:03.985Z,9.76
2023-04-22T00:05:31.525Z,9.78
2023-04-22T00:07:58.102Z,9.78
2023-04-22T00:10:24.557Z,9.87
2023-04-22T00:12:54.257Z,9.81
2023-04-22T00:15:25.483Z,9.70
2023-04-22T00:17:52.050Z,9.67
2023-04-22T00:20:21.480Z,9.62
2023-04-22T00:22:48.058Z,9.61
2023-04-22T00:25:14.585Z,9.51
2023-04-22T00:27:41.026Z,9.41
2023-04-22T00:30:10.457Z,9.44
2023-04-22T00:32:37.125Z,9.52
2023-04-22T00:35:04.374Z,9.60
2023-04-22T00:37:30.869Z,9.55
2023-04-22T00:39:58.044Z,9.44
2023-04-22T00:42:25.404Z,9.43
2023-04-22T00:44:56.302Z,9.54
2023-04-22T00:47:26.666Z,9.56
2023-04-22T00:49:54.150Z,9.57
2023-04-22T00:52:20.693Z,9.55
2023-04-22T00:54:48.183Z,9.52
2023-04-22T00:57:14.717Z,9.52
2023-04-22T00:59:42.592Z,9.54
2023-04-22T01:02:09.334Z,9.54
2023-04-22T01:04:39.658Z,9.50
2023-04-22T01:07:06.697Z,9.49
2023-04-22T01:09:33.807Z,9.43
2023-04-22T01:12:01.423Z,9.43
2023-04-22T01:14:30.723Z,9.43
2023-04-22T01:17:01.745Z,9.49
2023-04-22T01:19:29.424Z,9.38
2023-04-22T01:21:59.834Z,9.39
2023-04-22T01:24:26.644Z,9.41
2023-04-22T01:26:53.372Z,9.54
2023-04-22T01:29:20.022Z,9.61
2023-04-22T01:31:50.172Z,9.71
2023-04-22T01:34:16.838Z,9.87
2023-04-22T01:36:44.392Z,9.90
2023-04-22T01:39:10.904Z,9.83
2023-04-22T01:41:37.452Z,9.79
2023-04-22T01:44:04.739Z,9.90
2023-04-22T01:46:33.062Z,10.06
2023-04-22T01:48:59.620Z,10.07
2023-04-22T01:51:26.160Z,10.07
2023-04-22T01:53:52.998Z,9.98
2023-04-22T01:56:19.565Z,9.90
2023-04-22T01:58:45.997Z,9.85
2023-04-22T02:01:13.420Z,9.85
2023-04-22T02:03:39.968Z,9.66
2023-04-22T02:06:06.668Z,9.59
2023-04-22T02:08:33.407Z,9.58
2023-04-22T02:11:00.917Z,9.62
2023-04-22T02:13:40.898Z,9.55
2023-04-22T02:16:08.172Z,9.55
2023-04-22T02:18:35.138Z,9.56
2023-04-22T02:21:01.778Z,9.57
2023-04-22T02:23:28.922Z,9.52
2023-04-22T02:25:56.048Z,9.49
2023-04-22T02:28:22.739Z,9.55
2023-04-22T02:30:49.274Z,9.53
2023-04-22T02:33:15.726Z,9.15
2023-04-22T02:35:42.210Z,9.05
2023-04-22T02:38:10.382Z,8.97
2023-04-22T02:40:36.923Z,8.79
2023-04-22T02:43:04.441Z,8.87
2023-04-22T02:45:31.159Z,8.97
2023-04-22T02:47:57.694Z,8.96
2023-04-22T02:50:24.381Z,8.92
2023-04-22T02:52:51.437Z,8.87
2023-04-22T02:55:18.008Z,8.79
2023-04-22T02:57:44.559Z,8.59
2023-04-22T03:00:11.502Z,8.57
2023-04-22T03:02:38.843Z,8.48
2023-04-22T03:05:06.080Z,8.46
2023-04-22T03:07:32.543Z,8.48
2023-04-22T03:10:00.698Z,8.61
2023-04-22T03:12:27.252Z,8.58
2023-04-22T03:14:53.769Z,8.64
2023-04-22T03:17:20.646Z,8.57
2023-04-22T03:19:47.662Z,8.44
2023-04-22T03:22:14.135Z,8.46
2023-04-22T03:24:40.613Z,8.54
2023-04-22T03:27:07.140Z,8.32
2023-04-22T03:29:34.464Z,8.43
2023-04-22T03:32:03.918Z,8.41
2023-04-22T03:34:30.449Z,8.40
2023-04-22T03:36:56.938Z,8.46
2023-04-22T03:39:23.381Z,8.48
2023-04-22T03:41:49.855Z,8.58
2023-04-22T03:44:16.289Z,8.59
2023-04-22T03:46:42.771Z,8.60
2023-04-22T03:49:09.653Z,8.54
2023-04-22T03:51:36.082Z,8.52
2023-04-22T03:54:02.579Z,8.52
2023-04-22T03:56:29.105Z,8.57
2023-04-22T03:58:55.640Z,8.54
2023-04-22T04:01:23.476Z,8.57
2023-04-22T04:03:50.144Z,8.61
2023-04-22T04:06:16.751Z,8.65
2023-04-22T04:08:43.240Z,8.76
2023-04-22T04:11:11.317Z,8.81
2023-04-22T04:13:37.833Z,8.84
2023-04-22T04:16:04.423Z,8.75
2023-04-22T04:18:30.941Z,8.82
2023-04-22T04:20:57.368Z,8.84
2023-04-22T04:23:23.960Z,8.95
2023-04-22T04:25:50.475Z,8.91
2023-04-22T04:28:17.732Z,8.82
2023-04-22T04:30:44.205Z,8.94
2023-04-22T04:33:12.346Z,8.92
2023-04-22T04:35:39.316Z,8.84
2023-04-22T04:38:08.548Z,8.77
2023-04-22T04:40:35.757Z,8.72
2023-04-22T04:43:04.248Z,8.80
2023-04-22T04:45:31.000Z,8.80
2023-04-22T04:47:58.447Z,8.78
2023-04-22T04:50:28.061Z,8.93
2023-04-22T04:52:54.742Z,9.01
2023-04-22T04:55:21.395Z,9.13
2023-04-22T04:57:47.952Z,9.30
2023-04-22T05:00:14.615Z,9.46
2023-04-22T05:02:41.585Z,9.58
2023-04-22T05:05:08.908Z,9.68
2023-04-22T05:07:35.593Z,9.78
2023-04-22T05:10:03.630Z,9.91
2023-04-22T05:12:30.220Z,10.14
2023-04-22T05:14:56.720Z,10.41
2023-04-22T05:17:23.197Z,10.62
2023-04-22T05:19:49.676Z,10.71
2023-04-22T05:22:17.908Z,10.95
2023-04-22T05:24:44.469Z,10.94
2023-04-22T05:27:11.202Z,10.91
2023-04-22T05:29:38.005Z,10.90
2023-04-22T05:32:05.030Z,10.95
2023-04-22T05:34:31.695Z,11.09
2023-04-22T05:36:58.168Z,11.31
2023-04-22T05:39:24.702Z,11.51
2023-04-22T05:41:53.999Z,11.82
2023-04-22T05:44:20.616Z,12.04
2023-04-22T05:46:47.578Z,12.05
2023-04-22T05:49:14.098Z,12.35
2023-04-22T05:51:40.565Z,12.44
2023-04-22T05:54:07.275Z,12.58
2023-04-22T05:56:33.983Z,12.63
2023-04-22T05:59:00.512Z,12.62
2023-04-22T06:01:26.968Z,12.83
2023-04-22T06:03:53.715Z,13.00
2023-04-22T06:06:20.323Z,13.18
2023-04-22T06:08:46.816Z,13.13
2023-04-22T06:11:13.292Z,13.20
2023-04-22T06:13:39.751Z,13.22
2023-04-22T06:18:38.472Z,12.96
2023-04-22T06:21:08.240Z,13.11
2023-04-22T06:23:34.696Z,13.27
2023-04-22T06:26:01.682Z,13.35
2023-04-22T06:28:28.615Z,13.36
2023-04-22T06:30:58.423Z,13.41
2023-04-22T06:33:24.878Z,13.39
2023-04-22T06:35:51.397Z,13.45
2023-04-22T06:38:17.852Z,13.50
2023-04-22T06:40:44.358Z,13.55
2023-04-22T06:43:10.821Z,13.59
2023-04-22T06:45:37.569Z,13.62
2023-04-22T06:48:04.062Z,13.66
2023-04-22T06:50:30.794Z,13.69
2023-04-22T06:52:57.747Z,13.80
2023-04-22T06:55:24.224Z,13.74
2023-04-22T06:57:51.365Z,13.67
2023-04-22T07:00:18.232Z,13.75
2023-04-22T07:02:44.780Z,13.88
2023-04-22T07:05:11.342Z,13.88
2023-04-22T07:07:37.893Z,13.84
2023-04-22T07:10:05.195Z,13.75
2023-04-22T07:12:31.627Z,13.83
2023-04-22T07:14:58.085Z,13.81
2023-04-22T07:17:24.579Z,13.87
2023-04-22T07:19:51.197Z,13.86
2023-04-22T07:22:17.693Z,13.97
2023-04-22T07:24:44.202Z,14.08
2023-04-22T07:27:10.869Z,14.22
2023-04-22T07:29:37.746Z,14.29
2023-04-22T07:32:04.781Z,14.39
2023-04-22T07:34:31.264Z,14.41
2023-04-22T07:36:57.985Z,14.55
2023-04-22T07:39:24.473Z,14.69
2023-04-22T07:41:51.337Z,14.80
2023-04-22T07:44:21.441Z,14.95
2023-04-22T07:46:48.788Z,15.04
2023-04-22T07:49:16.650Z,15.18
2023-04-22T07:51:46.474Z,15.31
2023-04-22T07:54:15.922Z,15.49
2023-04-22T07:56:42.446Z,15.41
2023-04-22T07:59:08.882Z,15.46
2023-04-22T08:01:35.428Z,15.65
2023-04-22T08:04:02.119Z,15.75
2023-04-22T08:06:28.783Z,15.97
2023-04-22T08:08:55.232Z,16.05
2023-04-22T08:11:21.799Z,16.22
2023-04-22T08:13:48.326Z,16.37
2023-04-22T08:16:14.921Z,16.47
2023-04-22T08:18:41.435Z,16.55
2023-04-22T08:21:07.970Z,16.75
2023-04-22T08:23:34.515Z,16.87
2023-04-22T08:26:01.147Z,16.94
2023-04-22T08:28:27.692Z,17.03
2023-04-22T08:30:54.134Z,17.21
2023-04-22T08:33:20.725Z,17.36
2023-04-22T08:35:48.033Z,17.41
2023-04-22T08:38:14.511Z,17.67
2023-04-22T08:40:42.330Z,17.70
2023-04-22T08:43:09.437Z,17.79
2023-04-22T08:45:39.676Z,17.90
2023-04-22T08:48:09.011Z,18.12
2023-04-22T08:50:39.339Z,18.16
2023-04-22T08:53:06.291Z,18.36
2023-04-22T08:55:34.556Z,18.53
2023-04-22T08:58:01.778Z,18.54
2023-04-22T09:00:28.473Z,18.68
2023-04-22T09:02:56.465Z,18.88
2023-04-22T09:05:26.674Z,19.03
2023-04-22T09:07:55.249Z,19.29
2023-04-22T09:10:21.802Z,19.44
2023-04-22T09:12:48.885Z,19.50
2023-04-22T09:15:15.354Z,19.35
2023-04-22T09:17:43.326Z,19.54
2023-04-22T09:20:10.330Z,19.69
2023-04-22T09:22:49.057Z,19.69
2023-04-22T09:25:20.381Z,19.69
2023-04-22T09:27:53.036Z,20.14
2023-04-22T09:30:24.931Z,20.44
2023-04-22T09:33:00.453Z,20.54
2023-04-22T09:35:28.076Z,20.77
2023-04-22T09:37:55.330Z,20.80
2023-04-22T09:40:21.969Z,20.94
2023-04-22T09:42:53.138Z,21.02
2023-04-22T09:45:34.442Z,21.15
2023-04-22T09:48:19.573Z,21.18
2023-04-22T09:50:51.329Z,21.12
2023-04-22T09:53:18.506Z,21.17
2023-04-22T12:57:43.490Z,21.39
2023-04-22T13:00:14.360Z,21.33
2023-04-22T13:02:45.264Z,21.48
2023-04-22T13:05:12.833Z,21.49
2023-04-22T13:07:41.766Z,21.42
2023-04-22T13:10:14.587Z,21.50
2023-04-22T13:12:42.422Z,21.61
2023-04-22T13:15:10.222Z,21.69
2023-04-22T13:17:37.327Z,21.62
2023-04-22T13:20:09.909Z,21.75
2023-04-22T13:22:36.536Z,21.74
2023-04-22T13:25:03.118Z,21.67
2023-04-22T13:27:29.650Z,21.62
2023-04-22T13:29:56.993Z,21.47
2023-04-22T13:32:23.679Z,21.41
2023-04-22T13:34:50.326Z,21.32
2023-04-22T13:37:19.240Z,21.20
2023-04-22T13:39:46.209Z,21.14
2023-04-22T13:42:13.451Z,21.07
2023-04-22T13:44:39.945Z,21.05
2023-04-22T13:47:06.516Z,20.97
2023-04-22T13:49:33.056Z,20.95
2023-04-22T13:51:59.559Z,21.01
2023-04-22T13:54:27.452Z,21.04
2023-04-22T13:56:54.233Z,21.03
2023-04-22T13:59:20.981Z,21.03
2023-04-22T14:01:47.474Z,21.03
2023-04-22T14:04:14.195Z,21.09
2023-04-22T14:06:40.844Z,21.20
2023-04-22T14:09:07.857Z,21.29
2023-04-22T14:11:34.581Z,21.43
2023-04-22T14:14:01.136Z,21.53
2023-04-22T14:16:27.663Z,21.58
2023-04-22T14:18:55.855Z,21.60
2023-04-22T14:21:22.283Z,21.59
2023-04-22T14:23:49.534Z,21.59
2023-04-22T14:26:16.014Z,21.60
2023-04-22T14:28:42.608Z,21.52
2023-04-22T14:31:09.661Z,21.48
2023-04-22T14:33:36.167Z,21.51
2023-04-22T14:36:02.993Z,21.46
2023-04-22T14:38:29.736Z,21.42
2023-04-22T14:40:56.214Z,21.45
2023-04-22T14:43:22.742Z,21.49
2023-04-22T14:45:49.252Z,21.42
2023-04-22T14:48:16.091Z,21.33
2023-04-22T14:50:43.495Z,21.30
2023-04-22T14:53:10.034Z,21.28
2023-04-22T14:55:36.630Z,21.26
2023-04-22T14:58:06.916Z,21.28
2023-04-22T15:00:33.402Z,21.25
2023-04-22T15:03:00.413Z,21.26
2023-04-22T15:05:27.069Z,21.24
2023-04-22T15:07:53.687Z,21.18
2023-04-22T15:10:20.603Z,21.16
2023-04-22T15:12:47.086Z,21.08
2023-04-22T15:15:15.716Z,20.92
2023-04-22T15:17:43.271Z,20.84
2023-04-22T15:20:10.765Z,20.78
2023-04-22T15:22:40.854Z,20.74
2023-04-22T15:25:09.695Z,20.70
2023-04-22T15:27:37.296Z,20.70
2023-04-22T15:30:05.977Z,20.65
2023-04-22T15:32:32.533Z,20.62
2023-04-22T15:34:59.100Z,20.62
2023-04-22T15:37:28.344Z,20.60
2023-04-22T15:39:54.844Z,20.61
2023-04-22T15:42:21.304Z,20.64
2023-04-22T15:44:47.819Z,20.63
2023-04-22T15:47:15.896Z,20.63
2023-04-22T15:49:42.579Z,20.66
2023-04-22T15:52:09.323Z,20.68
2023-04-22T15:54:35.832Z,20.70
2023-04-22T15:57:02.455Z,20.73
2023-04-22T15:59:28.921Z,20.77
2023-04-22T16:01:55.493Z,20.78
2023-04-22T16:04:22.213Z,20.85
2023-04-22T16:06:50.741Z,20.93
2023-04-22T16:09:17.860Z,20.96
2023-04-22T16:11:44.348Z,20.94
2023-04-22T16:14:11.296Z,20.90
2023-04-22T16:16:39.999Z,20.91
2023-04-22T16:19:07.296Z,20.87
2023-04-22T16:21:36.495Z,20.85
2023-04-22T16:24:03.110Z,20.82
2023-04-22T16:26:29.652Z,20.81
2023-04-22T16:28:56.292Z,20.71
2023-04-22T16:31:25.867Z,20.64
2023-04-22T16:33:52.436Z,20.59
2023-04-22T16:36:18.963Z,20.54
2023-04-22T16:38:45.574Z,20.55
2023-04-22T16:41:15.430Z,20.53
2023-04-22T16:43:43.969Z,20.50
2023-04-22T16:46:10.636Z,20.43
2023-04-22T16:48:37.167Z,20.33
2023-04-22T16:51:04.321Z,20.25
2023-04-22T16:53:31.328Z,20.28
2023-04-22T16:55:57.933Z,20.25
2023-04-22T16:58:24.504Z,20.21
2023-04-22T17:00:51.420Z,20.26
2023-04-22T17:03:18.051Z,20.25
2023-04-22T17:05:44.602Z,20.27
2023-04-22T17:08:11.056Z,20.31
2023-04-22T17:10:41.450Z,20.29
2023-04-22T17:13:07.989Z,20.26
2023-04-22T17:15:34.559Z,20.30
2023-04-22T17:18:02.430Z,20.26
2023-04-22T17:20:28.953Z,20.20
2023-04-22T17:22:55.492Z,20.22
2023-04-22T17:25:24.809Z,20.27
2023-04-22T17:27:51.250Z,20.23
2023-04-22T17:30:17.786Z,20.10
2023-04-22T17:32:44.253Z,19.98
2023-04-22T17:35:10.799Z,19.95
2023-04-22T17:37:37.392Z,19.82
2023-04-22T17:40:04.882Z,19.82
2023-04-22T17:42:44.739Z,19.74
2023-04-22T17:45:12.643Z,19.60
2023-04-22T17:47:39.214Z,19.50
2023-04-22T17:50:06.328Z,19.44
2023-04-22T17:52:32.814Z,19.41
2023-04-22T17:55:00.033Z,19.36
2023-04-22T17:57:28.424Z,19.33
2023-04-22T17:59:54.919Z,19.22
2023-04-22T18:02:22.307Z,19.29
2023-04-22T18:04:48.877Z,19.24
2023-04-22T18:07:15.712Z,19.21
2023-04-22T18:09:42.834Z,19.16
2023-04-22T18:12:10.235Z,19.09
2023-04-22T18:14:36.740Z,19.09
2023-04-22T18:17:03.501Z,19.07
2023-04-22T18:19:30.039Z,19.03
2023-04-22T18:22:00.144Z,18.98
2023-04-22T18:24:27.568Z,18.95
2023-04-22T18:26:54.163Z,18.85
2023-04-22T18:29:20.753Z,18.82
2023-04-22T18:31:47.531Z,18.78
2023-04-22T18:34:15.875Z,18.70
2023-04-22T18:36:42.570Z,18.67
2023-04-22T18:39:09.638Z,18.81
2023-04-22T18:41:38.604Z,18.89
2023-04-22T18:44:05.504Z,18.92
2023-04-22T18:46:32.153Z,18.94
2023-04-22T18:48:58.659Z,18.96
2023-04-22T18:51:25.150Z,18.95
2023-04-22T18:53:52.298Z,18.90
2023-04-22T18:56:18.773Z,18.87
2023-04-22T18:58:45.332Z,18.83
2023-04-22T19:01:12.080Z,18.81
2023-04-22T19:03:39.592Z,18.83
2023-04-22T19:06:06.880Z,18.82
2023-04-22T19:08:33.949Z,18.74
2023-04-22T19:11:01.102Z,18.72
2023-04-22T19:13:30.008Z,18.65
2023-04-22T19:15:57.350Z,18.57
2023-04-22T19:18:24.116Z,18.55
2023-04-22T19:20:50.682Z,18.47
2023-04-22T19:23:20.514Z,18.44
2023-04-22T19:25:46.957Z,18.39
2023-04-22T19:28:13.506Z,18.38
2023-04-22T19:30:43.472Z,18.35
2023-04-22T19:33:13.923Z,18.29
2023-04-22T19:35:40.965Z,18.25
2023-04-22T19:38:07.494Z,18.25
2023-04-22T19:40:34.742Z,18.23
2023-04-22T19:43:03.003Z,18.17
2023-04-22T19:45:32.298Z,18.14
2023-04-22T19:48:02.045Z,18.08
2023-04-22T19:50:28.698Z,18.01
2023-04-22T19:53:04.878Z,17.93
2023-04-22T19:55:33.689Z,17.85
2023-04-22T19:58:00.686Z,17.83
2023-04-22T20:00:27.295Z,17.82
2023-04-22T20:02:54.300Z,17.77
2023-04-22T20:05:22.173Z,17.80
2023-04-22T20:07:49.778Z,17.80
2023-04-22T20:10:16.712Z,17.80
2023-04-22T20:12:44.861Z,17.73
2023-04-22T20:15:11.806Z,17.66
2023-04-22T20:17:39.274Z,17.60
2023-04-22T20:20:08.296Z,17.60
2023-04-22T20:22:35.227Z,17.55
2023-04-22T20:25:04.118Z,17.48
2023-04-22T20:27:31.791Z,17.42
2023-04-22T20:30:00.461Z,17.49
2023-04-22T20:32:28.708Z,17.57
2023-04-22T20:34:56.098Z,17.61
2023-04-22T20:37:31.514Z,17.65
2023-04-22T20:40:04.446Z,17.67
2023-04-22T20:42:32.693Z,17.66
2023-04-22T20:44:59.336Z,17.69
2023-04-22T20:47:25.847Z,17.70
2023-04-22T20:49:52.401Z,17.71
2023-04-22T20:52:19.267Z,17.69
2023-04-22T20:54:46.120Z,17.63
2023-04-22T20:57:13.255Z,17.59
2023-04-22T20:59:39.747Z,17.57
2023-04-22T21:02:07.398Z,17.57
2023-04-22T21:04:34.626Z,17.56
2023-04-22T21:07:05.226Z,17.52
2023-04-22T21:09:35.373Z,17.48
2023-04-22T21:12:05.037Z,17.46
2023-04-22T21:14:31.799Z,17.41
2023-04-22T21:17:03.416Z,17.36
2023-04-22T21:19:34.150Z,17.30
2023-04-22T21:22:05.111Z,17.23
2023-04-22T21:24:32.876Z,17.21
2023-04-22T21:27:08.132Z,17.18
2023-04-22T21:29:38.324Z,17.16
2023-04-22T21:32:09.358Z,17.13
2023-04-22T21:34:40.577Z,17.09
2023-04-22T21:37:11.149Z,17.05
2023-04-22T21:39:39.193Z,17.05
2023-04-22T21:42:08.369Z,17.03
2023-04-22T21:44:36.495Z,17.00
2023-04-22T21:47:03.903Z,17.00
2023-04-22T21:49:30.382Z,17.00
2023-04-22T21:51:57.076Z,16.96
2023-04-22T21:54:23.574Z,16.91
2023-04-22T21:56:50.910Z,16.88
2023-04-22T21:59:19.435Z,16.87
2023-04-22T22:01:48.886Z,16.86
2023-04-22T22:04:16.413Z,16.85
2023-04-22T22:06:44.749Z,16.81
2023-04-22T22:09:12.075Z,16.79
2023-04-22T22:11:38.591Z,16.76
2023-04-22T22:14:08.884Z,16.76
2023-04-22T22:16:35.567Z,16.74
2023-04-22T22:19:05.195Z,16.69
2023-04-22T22:21:32.978Z,16.68
2023-04-22T22:24:03.912Z,16.64
2023-04-22T22:26:36.630Z,16.56
2023-04-22T22:29:03.273Z,16.57
2023-04-22T22:31:29.771Z,16.56
2023-04-22T22:34:02.106Z,16.49
2023-04-22T22:36:31.572Z,16.46
2023-04-22T22:38:58.476Z,16.47
2023-04-22T22:41:24.918Z,16.44
2023-04-22T22:43:51.714Z,16.42
2023-04-22T22:46:24.812Z,16.32
2023-04-22T22:48:53.645Z,16.30
2023-04-22T22:51:23.592Z,16.26
2023-04-22T22:53:50.168Z,16.25
2023-04-22T22:56:18.062Z,16.20
2023-04-22T22:58:46.077Z,16.20
2023-04-22T23:01:12.621Z,16.18
2023-04-22T23:03:39.561Z,16.14
2023-04-22T23:06:12.288Z,16.09
2023-04-22T23:08:41.699Z,16.06
2023-04-22T23:11:08.165Z,16.07
2023-04-22T23:13:34.660Z,16.08
2023-04-22T23:16:01.360Z,16.12
2023-04-22T23:18:28.053Z,16.12
2023-04-22T23:20:54.717Z,16.14
2023-04-22T23:23:22.731Z,16.08
2023-04-22T23:25:49.481Z,16.09
2023-04-22T23:28:16.398Z,16.08
2023-04-22T23:30:49.235Z,16.03
2023-04-22T23:33:26.639Z,16.00
2023-04-22T23:35:53.826Z,15.93
2023-04-22T23:38:20.521Z,15.90
2023-04-22T23:40:47.026Z,15.89
2023-04-22T23:43:13.585Z,15.85
2023-04-22T23:45:40.259Z,15.78
2023-04-22T23:48:09.805Z,15.78
2023-04-22T23:50:36.357Z,15.79
2023-04-22T23:53:33.772Z,15.77
2023-04-22T23:56:00.862Z,15.71
2023-04-22T23:58:27.526Z,15.71
